sensor_id;sensor_type;location;lat;lon;timestamp;pressure;altitude;pressure_sealevel;temperature;humidity
19624;BME280;9959;49.798;9.928;2022-12-07T00:01:05;99730.16;;;2.26;100.00
19624;BME280;9959;49.798;9.928;2022-12-07T00:03:34;99731.44;;;2.22;100.00
19624;BME280;9959;49.798;9.928;2022-12-07T00:06:03;99733.88;;;2.33;100.00
19624;BME280;9959;49.798;9.928;2022-12-07T00:08:31;99735.53;;;2.34;100.00
19624;BME280;9959;49.798;9.928;2022-12-07T00:11:01;99734.53;;;2.35;100.00
19624;BME280;9959;49.798;9.928;2022-12-07T00:13:32;99729.97;;;2.46;99.90
19624;BME280;9959;49.798;9.928;2022-12-07T00:16:01;99734.22;;;2.38;99.32
19624;BME280;9959;49.798;9.928;2022-12-07T00:18:29;99738.19;;;2.34;99.79
19624;BME280;9959;49.798;9.928;2022-12-07T00:21:00;99733.09;;;2.41;98.51
19624;BME280;9959;49.798;9.928;2022-12-07T00:23:29;99722.91;;;2.36;98.64
19624;BME280;9959;49.798;9.928;2022-12-07T00:26:04;99725.94;;;2.42;97.80
19624;BME280;9959;49.798;9.928;2022-12-07T00:28:33;99729.28;;;2.44;97.73
19624;BME280;9959;49.798;9.928;2022-12-07T00:31:06;99730.59;;;2.40;98.36
19624;BME280;9959;49.798;9.928;2022-12-07T00:33:35;99728.06;;;2.38;98.49
19624;BME280;9959;49.798;9.928;2022-12-07T00:36:06;99717.13;;;2.41;98.10
19624;BME280;9959;49.798;9.928;2022-12-07T00:38:36;99718.16;;;2.48;96.78
19624;BME280;9959;49.798;9.928;2022-12-07T00:41:06;99712.81;;;2.40;96.07
19624;BME280;9959;49.798;9.928;2022-12-07T00:43:35;99705.38;;;2.52;95.39
19624;BME280;9959;49.798;9.928;2022-12-07T00:46:04;99711.34;;;2.46;94.95
19624;BME280;9959;49.798;9.928;2022-12-07T00:48:32;99711.34;;;2.46;94.72
19624;BME280;9959;49.798;9.928;2022-12-07T00:51:00;99698.38;;;2.51;94.52
19624;BME280;9959;49.798;9.928;2022-12-07T00:53:29;99694.88;;;2.50;94.13
19624;BME280;9959;49.798;9.928;2022-12-07T00:56:05;99705.00;;;2.47;94.81
19624;BME280;9959;49.798;9.928;2022-12-07T00:58:33;99703.38;;;2.46;94.88
19624;BME280;9959;49.798;9.928;2022-12-07T01:01:04;99700.34;;;2.41;94.68
19624;BME280;9959;49.798;9.928;2022-12-07T01:03:32;99689.66;;;2.32;95.08
19624;BME280;9959;49.798;9.928;2022-12-07T01:06:00;99690.66;;;2.31;95.15
19624;BME280;9959;49.798;9.928;2022-12-07T01:08:29;99689.25;;;2.45;94.43
19624;BME280;9959;49.798;9.928;2022-12-07T01:10:58;99687.38;;;2.37;93.96
19624;BME280;9959;49.798;9.928;2022-12-07T01:13:27;99691.63;;;2.30;93.68
19624;BME280;9959;49.798;9.928;2022-12-07T01:15:57;99685.22;;;2.41;92.95
19624;BME280;9959;49.798;9.928;2022-12-07T01:18:28;99688.41;;;2.45;92.27
19624;BME280;9959;49.798;9.928;2022-12-07T01:20:58;99683.72;;;2.47;92.24
19624;BME280;9959;49.798;9.928;2022-12-07T01:23:26;99693.38;;;2.40;92.46
19624;BME280;9959;49.798;9.928;2022-12-07T01:25:55;99693.38;;;2.40;92.76
19624;BME280;9959;49.798;9.928;2022-12-07T01:28:23;99690.22;;;2.44;92.94
19624;BME280;9959;49.798;9.928;2022-12-07T01:30:56;99686.22;;;2.40;92.52
19624;BME280;9959;49.798;9.928;2022-12-07T01:33:28;99682.41;;;2.43;92.48
19624;BME280;9959;49.798;9.928;2022-12-07T01:36:01;99692.69;;;2.37;92.50
19624;BME280;9959;49.798;9.928;2022-12-07T01:38:30;99696.38;;;2.45;92.57
19624;BME280;9959;49.798;9.928;2022-12-07T01:40:59;99698.06;;;2.46;92.53
19624;BME280;9959;49.798;9.928;2022-12-07T01:43:28;99689.06;;;2.47;92.71
19624;BME280;9959;49.798;9.928;2022-12-07T01:45:57;99688.75;;;2.50;91.58
19624;BME280;9959;49.798;9.928;2022-12-07T01:48:29;99685.22;;;2.41;92.78
19624;BME280;9959;49.798;9.928;2022-12-07T01:51:01;99678.09;;;2.50;91.94
19624;BME280;9959;49.798;9.928;2022-12-07T01:53:31;99675.75;;;2.47;91.70
19624;BME280;9959;49.798;9.928;2022-12-07T01:56:03;99672.47;;;2.53;91.08
19624;BME280;9959;49.798;9.928;2022-12-07T01:58:33;99664.47;;;2.45;91.49
19624;BME280;9959;49.798;9.928;2022-12-07T02:01:01;99662.47;;;2.47;91.75
19624;BME280;9959;49.798;9.928;2022-12-07T02:03:34;99666.78;;;2.48;91.58
19624;BME280;9959;49.798;9.928;2022-12-07T02:06:04;99672.63;;;2.51;91.36
19624;BME280;9959;49.798;9.928;2022-12-07T02:08:33;99665.16;;;2.55;90.83
19624;BME280;9959;49.798;9.928;2022-12-07T02:11:01;99656.00;;;2.49;90.79
19624;BME280;9959;49.798;9.928;2022-12-07T02:13:31;99660.16;;;2.52;90.28
19624;BME280;9959;49.798;9.928;2022-12-07T02:16:10;99658.53;;;2.59;89.59
19624;BME280;9959;49.798;9.928;2022-12-07T02:18:52;99651.88;;;2.55;90.64
19624;BME280;9959;49.798;9.928;2022-12-07T02:21:30;99655.00;;;2.50;90.80
19624;BME280;9959;49.798;9.928;2022-12-07T02:24:36;99656.50;;;2.53;91.79
19624;BME280;9959;49.798;9.928;2022-12-07T02:30:12;99647.03;;;2.50;91.48
19624;BME280;9959;49.798;9.928;2022-12-07T02:32:45;99638.63;;;2.63;90.46
19624;BME280;9959;49.798;9.928;2022-12-07T02:35:19;99637.94;;;2.61;90.85
19624;BME280;9959;49.798;9.928;2022-12-07T02:37:53;99634.25;;;2.54;91.56
19624;BME280;9959;49.798;9.928;2022-12-07T02:40:27;99651.03;;;2.46;92.44
19624;BME280;9959;49.798;9.928;2022-12-07T02:43:01;99656.81;;;2.42;92.79
19624;BME280;9959;49.798;9.928;2022-12-07T02:45:34;99650.38;;;2.52;92.45
19624;BME280;9959;49.798;9.928;2022-12-07T02:48:03;99651.19;;;2.53;91.83
19624;BME280;9959;49.798;9.928;2022-12-07T02:50:32;99639.56;;;2.46;92.84
19624;BME280;9959;49.798;9.928;2022-12-07T02:53:00;99646.88;;;2.44;92.71
19624;BME280;9959;49.798;9.928;2022-12-07T02:55:31;99645.19;;;2.43;92.77
19624;BME280;9959;49.798;9.928;2022-12-07T02:58:22;99643.69;;;2.48;92.21
19624;BME280;9959;49.798;9.928;2022-12-07T03:01:04;99649.53;;;2.44;91.78
19624;BME280;9959;49.798;9.928;2022-12-07T03:03:35;99640.25;;;2.56;91.31
19624;BME280;9959;49.798;9.928;2022-12-07T03:06:10;99641.41;;;2.53;90.71
19624;BME280;9959;49.798;9.928;2022-12-07T03:08:50;99648.91;;;2.58;91.34
19624;BME280;9959;49.798;9.928;2022-12-07T03:11:24;99649.09;;;2.64;91.25
19624;BME280;9959;49.798;9.928;2022-12-07T03:13:59;99649.94;;;2.65;90.71
19624;BME280;9959;49.798;9.928;2022-12-07T03:16:34;99641.63;;;2.68;90.48
19624;BME280;9959;49.798;9.928;2022-12-07T03:19:06;99637.63;;;2.64;91.02
19624;BME280;9959;49.798;9.928;2022-12-07T03:21:38;99633.97;;;2.65;90.78
19624;BME280;9959;49.798;9.928;2022-12-07T03:24:12;99624.75;;;2.51;91.46
19624;BME280;9959;49.798;9.928;2022-12-07T03:26:46;99624.28;;;2.56;91.28
19624;BME280;9959;49.798;9.928;2022-12-07T03:29:20;99623.63;;;2.54;90.90
19624;BME280;9959;49.798;9.928;2022-12-07T03:31:54;99626.47;;;2.60;90.89
19624;BME280;9959;49.798;9.928;2022-12-07T03:34:27;99624.28;;;2.56;90.89
19624;BME280;9959;49.798;9.928;2022-12-07T03:37:00;99624.47;;;2.62;90.38
19624;BME280;9959;49.798;9.928;2022-12-07T03:39:32;99623.97;;;2.59;91.12
19624;BME280;9959;49.798;9.928;2022-12-07T03:42:04;99619.28;;;2.53;91.27
19624;BME280;9959;49.798;9.928;2022-12-07T03:44:33;99613.81;;;2.54;90.96
19624;BME280;9959;49.798;9.928;2022-12-07T03:47:06;99618.28;;;2.46;90.98
19624;BME280;9959;49.798;9.928;2022-12-07T03:49:43;99613.59;;;2.40;91.80
19624;BME280;9959;49.798;9.928;2022-12-07T03:52:16;99612.63;;;2.49;91.37
19624;BME280;9959;49.798;9.928;2022-12-07T03:54:49;99615.78;;;2.44;91.58
19624;BME280;9959;49.798;9.928;2022-12-07T03:57:21;99623.47;;;2.55;90.47
19624;BME280;9959;49.798;9.928;2022-12-07T03:59:51;99628.25;;;2.52;90.48
19624;BME280;9959;49.798;9.928;2022-12-07T04:02:20;99626.28;;;2.54;90.54
19624;BME280;9959;49.798;9.928;2022-12-07T04:04:50;99624.94;;;2.50;90.18
19624;BME280;9959;49.798;9.928;2022-12-07T04:07:17;99632.22;;;2.48;91.08
19624;BME280;9959;49.798;9.928;2022-12-07T04:09:45;99623.59;;;2.46;90.83
19624;BME280;9959;49.798;9.928;2022-12-07T04:12:13;99616.78;;;2.51;90.58
19624;BME280;9959;49.798;9.928;2022-12-07T04:14:41;99617.31;;;2.55;90.38
19624;BME280;9959;49.798;9.928;2022-12-07T04:17:09;99614.19;;;2.67;88.05
19624;BME280;9959;49.798;9.928;2022-12-07T04:19:38;99609.41;;;2.71;88.35
19624;BME280;9959;49.798;9.928;2022-12-07T04:22:07;99602.38;;;2.62;88.57
19624;BME280;9959;49.798;9.928;2022-12-07T04:24:35;99601.38;;;2.63;88.70
19624;BME280;9959;49.798;9.928;2022-12-07T04:27:03;99607.38;;;2.65;88.76
19624;BME280;9959;49.798;9.928;2022-12-07T04:29:31;99612.69;;;2.65;89.37
19624;BME280;9959;49.798;9.928;2022-12-07T04:31:59;99609.53;;;2.61;88.64
19624;BME280;9959;49.798;9.928;2022-12-07T04:34:27;99608.53;;;2.62;89.32
19624;BME280;9959;49.798;9.928;2022-12-07T04:36:56;99613.16;;;2.60;90.13
19624;BME280;9959;49.798;9.928;2022-12-07T04:39:26;99615.66;;;2.62;89.12
19624;BME280;9959;49.798;9.928;2022-12-07T04:41:55;99614.69;;;2.63;88.62
19624;BME280;9959;49.798;9.928;2022-12-07T04:44:25;99612.34;;;2.60;89.36
19624;BME280;9959;49.798;9.928;2022-12-07T04:46:53;99623.63;;;2.54;89.71
19624;BME280;9959;49.798;9.928;2022-12-07T04:49:22;99612.19;;;2.61;88.18
19624;BME280;9959;49.798;9.928;2022-12-07T04:51:50;99612.19;;;2.61;88.26
19624;BME280;9959;49.798;9.928;2022-12-07T04:54:20;99611.00;;;2.56;89.06
19624;BME280;9959;49.798;9.928;2022-12-07T04:56:48;99612.16;;;2.53;89.29
19624;BME280;9959;49.798;9.928;2022-12-07T04:59:17;99620.00;;;2.63;88.96
19624;BME280;9959;49.798;9.928;2022-12-07T05:01:45;99607.72;;;2.70;88.04
19624;BME280;9959;49.798;9.928;2022-12-07T05:04:13;99611.69;;;2.66;88.46
19624;BME280;9959;49.798;9.928;2022-12-07T05:06:42;99614.31;;;2.58;89.21
19624;BME280;9959;49.798;9.928;2022-12-07T05:09:10;99616.63;;;2.53;90.16
19624;BME280;9959;49.798;9.928;2022-12-07T05:11:39;99618.34;;;2.62;88.69
19624;BME280;9959;49.798;9.928;2022-12-07T05:14:10;99611.34;;;2.61;87.55
19624;BME280;9959;49.798;9.928;2022-12-07T05:16:39;99608.00;;;2.59;86.79
19624;BME280;9959;49.798;9.928;2022-12-07T05:19:08;99613.66;;;2.56;87.65
19624;BME280;9959;49.798;9.928;2022-12-07T05:21:36;99615.31;;;2.57;87.63
19624;BME280;9959;49.798;9.928;2022-12-07T05:24:06;99618.53;;;2.68;87.31
19624;BME280;9959;49.798;9.928;2022-12-07T05:26:34;99614.19;;;2.67;87.85
19624;BME280;9959;49.798;9.928;2022-12-07T05:29:03;99614.53;;;2.64;87.83
19624;BME280;9959;49.798;9.928;2022-12-07T05:31:32;99611.97;;;2.55;87.85
19624;BME280;9959;49.798;9.928;2022-12-07T05:34:00;99602.00;;;2.49;89.50
19624;BME280;9959;49.798;9.928;2022-12-07T05:36:29;99601.00;;;2.42;89.44
19624;BME280;9959;49.798;9.928;2022-12-07T05:38:58;99602.34;;;2.46;89.12
19624;BME280;9959;49.798;9.928;2022-12-07T05:41:26;99618.59;;;2.43;89.72
19624;BME280;9959;49.798;9.928;2022-12-07T05:44:13;99611.94;;;2.38;91.14
19624;BME280;9959;49.798;9.928;2022-12-07T05:46:41;99611.31;;;2.53;89.51
19624;BME280;9959;49.798;9.928;2022-12-07T05:49:09;99610.31;;;2.54;89.75
19624;BME280;9959;49.798;9.928;2022-12-07T05:51:37;99609.53;;;2.61;89.87
19624;BME280;9959;49.798;9.928;2022-12-07T05:54:05;99599.22;;;2.66;89.28
19624;BME280;9959;49.798;9.928;2022-12-07T05:56:33;99613.22;;;2.68;89.73
19624;BME280;9959;49.798;9.928;2022-12-07T05:59:01;99609.69;;;2.60;90.25
19624;BME280;9959;49.798;9.928;2022-12-07T06:01:48;99612.97;;;2.54;90.53
19624;BME280;9959;49.798;9.928;2022-12-07T06:04:16;99608.34;;;2.56;90.83
19624;BME280;9959;49.798;9.928;2022-12-07T06:06:44;99609.38;;;2.63;90.35
19624;BME280;9959;49.798;9.928;2022-12-07T06:09:12;99612.69;;;2.65;90.40
19624;BME280;9959;49.798;9.928;2022-12-07T06:11:40;99608.69;;;2.61;90.33
19624;BME280;9959;49.798;9.928;2022-12-07T06:14:22;99601.66;;;2.52;91.35
19624;BME280;9959;49.798;9.928;2022-12-07T06:16:52;99605.00;;;2.54;91.82
19624;BME280;9959;49.798;9.928;2022-12-07T06:19:20;99593.41;;;2.63;90.74
19624;BME280;9959;49.798;9.928;2022-12-07T06:21:48;99593.72;;;2.60;91.44
19624;BME280;9959;49.798;9.928;2022-12-07T06:24:16;99597.38;;;2.59;91.77
19624;BME280;9959;49.798;9.928;2022-12-07T06:26:45;99598.50;;;2.48;92.54
19624;BME280;9959;49.798;9.928;2022-12-07T06:29:14;99596.03;;;2.55;92.55
19624;BME280;9959;49.798;9.928;2022-12-07T06:31:42;99593.84;;;2.50;92.65
19624;BME280;9959;49.798;9.928;2022-12-07T06:34:13;99593.72;;;2.60;92.43
19624;BME280;9959;49.798;9.928;2022-12-07T06:36:42;99607.00;;;2.52;93.19
19624;BME280;9959;49.798;9.928;2022-12-07T06:39:11;99601.72;;;2.68;91.99
19624;BME280;9959;49.798;9.928;2022-12-07T06:41:39;99613.00;;;2.62;92.28
19624;BME280;9959;49.798;9.928;2022-12-07T06:44:07;99608.50;;;2.54;92.90
19624;BME280;9959;49.798;9.928;2022-12-07T06:46:35;99608.84;;;2.59;92.97
19624;BME280;9959;49.798;9.928;2022-12-07T06:49:03;99609.00;;;2.58;93.07
19624;BME280;9959;49.798;9.928;2022-12-07T06:51:36;99609.56;;;2.69;92.26
19624;BME280;9959;49.798;9.928;2022-12-07T06:54:07;99612.72;;;2.73;91.89
19624;BME280;9959;49.798;9.928;2022-12-07T06:56:36;99615.00;;;2.60;92.70
19624;BME280;9959;49.798;9.928;2022-12-07T06:59:04;99611.19;;;2.62;93.05
19624;BME280;9959;49.798;9.928;2022-12-07T07:01:34;99620.34;;;2.76;92.23
19624;BME280;9959;49.798;9.928;2022-12-07T07:04:03;99623.16;;;2.75;92.44
19624;BME280;9959;49.798;9.928;2022-12-07T07:06:31;99617.50;;;2.61;92.95
19624;BME280;9959;49.798;9.928;2022-12-07T07:09:00;99618.69;;;2.75;92.89
19624;BME280;9959;49.798;9.928;2022-12-07T07:11:28;99616.19;;;2.73;92.77
19624;BME280;9959;49.798;9.928;2022-12-07T07:13:56;99622.19;;;2.76;92.66
19624;BME280;9959;49.798;9.928;2022-12-07T07:16:28;99610.88;;;2.73;92.20
19624;BME280;9959;49.798;9.928;2022-12-07T07:18:58;99611.41;;;2.85;92.01
19624;BME280;9959;49.798;9.928;2022-12-07T07:21:26;99613.38;;;2.75;91.80
19624;BME280;9959;49.798;9.928;2022-12-07T07:23:54;99623.38;;;2.73;93.13
19624;BME280;9959;49.798;9.928;2022-12-07T07:26:24;99621.53;;;2.82;92.17
19624;BME280;9959;49.798;9.928;2022-12-07T07:28:52;99623.84;;;2.77;92.88
19624;BME280;9959;49.798;9.928;2022-12-07T07:31:20;99624.03;;;2.83;92.29
19624;BME280;9959;49.798;9.928;2022-12-07T07:33:47;99622.69;;;2.79;92.45
19624;BME280;9959;49.798;9.928;2022-12-07T07:36:16;99616.56;;;2.87;92.66
19624;BME280;9959;49.798;9.928;2022-12-07T07:38:46;99622.72;;;2.87;92.45
19624;BME280;9959;49.798;9.928;2022-12-07T07:41:14;99613.03;;;2.78;93.18
19624;BME280;9959;49.798;9.928;2022-12-07T07:43:43;99619.03;;;2.80;93.17
19624;BME280;9959;49.798;9.928;2022-12-07T07:46:11;99612.22;;;2.78;93.33
19624;BME280;9959;49.798;9.928;2022-12-07T07:48:39;99615.03;;;2.76;93.69
19624;BME280;9959;49.798;9.928;2022-12-07T07:51:07;99620.34;;;2.76;93.46
19624;BME280;9959;49.798;9.928;2022-12-07T07:53:35;99615.72;;;2.86;92.74
19624;BME280;9959;49.798;9.928;2022-12-07T07:56:03;99621.19;;;2.77;93.80
19624;BME280;9959;49.798;9.928;2022-12-07T07:58:31;99620.06;;;2.87;93.48
19624;BME280;9959;49.798;9.928;2022-12-07T08:01:05;99623.09;;;3.00;92.48
19624;BME280;9959;49.798;9.928;2022-12-07T08:03:34;99619.06;;;3.04;92.23
19624;BME280;9959;49.798;9.928;2022-12-07T08:06:02;99624.72;;;3.01;92.38
19624;BME280;9959;49.798;9.928;2022-12-07T08:08:30;99626.06;;;3.05;91.99
19624;BME280;9959;49.798;9.928;2022-12-07T08:10:59;99630.25;;;3.16;91.33
19624;BME280;9959;49.798;9.928;2022-12-07T08:13:27;99632.41;;;3.13;91.33
19624;BME280;9959;49.798;9.928;2022-12-07T08:15:57;99628.44;;;3.25;90.64
19624;BME280;9959;49.798;9.928;2022-12-07T08:18:26;99629.44;;;3.24;90.76
19624;BME280;9959;49.798;9.928;2022-12-07T08:20:58;99622.59;;;3.29;90.21
19624;BME280;9959;49.798;9.928;2022-12-07T08:23:27;99633.44;;;3.28;90.15
19624;BME280;9959;49.798;9.928;2022-12-07T08:26:06;99630.41;;;3.31;90.56
19624;BME280;9959;49.798;9.928;2022-12-07T08:28:35;99626.75;;;3.40;89.97
19624;BME280;9959;49.798;9.928;2022-12-07T08:31:05;99629.09;;;3.27;89.82
19624;BME280;9959;49.798;9.928;2022-12-07T08:33:35;99630.09;;;3.34;90.02
19624;BME280;9959;49.798;9.928;2022-12-07T08:36:04;99639.25;;;3.23;90.56
19624;BME280;9959;49.798;9.928;2022-12-07T08:38:34;99632.75;;;3.18;90.98
19624;BME280;9959;49.798;9.928;2022-12-07T08:41:02;99635.91;;;3.21;90.88
19624;BME280;9959;49.798;9.928;2022-12-07T08:43:32;99633.41;;;3.36;90.43
19624;BME280;9959;49.798;9.928;2022-12-07T08:46:06;99636.75;;;3.38;90.83
19624;BME280;9959;49.798;9.928;2022-12-07T08:48:38;99642.06;;;3.38;90.32
19624;BME280;9959;49.798;9.928;2022-12-07T08:51:07;99630.09;;;3.42;90.41
19624;BME280;9959;49.798;9.928;2022-12-07T08:53:36;99636.59;;;3.39;90.22
19624;BME280;9959;49.798;9.928;2022-12-07T08:56:06;99638.75;;;3.44;90.53
19624;BME280;9959;49.798;9.928;2022-12-07T08:58:35;99636.59;;;3.48;90.26
19624;BME280;9959;49.798;9.928;2022-12-07T09:01:05;99643.44;;;3.50;89.97
19624;BME280;9959;49.798;9.928;2022-12-07T09:03:33;99642.44;;;3.51;90.46
19624;BME280;9959;49.798;9.928;2022-12-07T09:06:02;99639.91;;;3.58;90.08
19624;BME280;9959;49.798;9.928;2022-12-07T09:08:33;99644.41;;;3.57;89.30
19624;BME280;9959;49.798;9.928;2022-12-07T09:11:02;99644.94;;;3.53;90.17
19624;BME280;9959;49.798;9.928;2022-12-07T09:13:30;99643.56;;;3.65;89.38
19624;BME280;9959;49.798;9.928;2022-12-07T09:15:58;99639.56;;;3.69;88.68
19624;BME280;9959;49.798;9.928;2022-12-07T09:18:26;99643.53;;;3.89;88.44
19624;BME280;9959;49.798;9.928;2022-12-07T09:20:54;99646.53;;;3.86;88.66
19624;BME280;9959;49.798;9.928;2022-12-07T09:23:23;99647.41;;;3.70;88.32
19624;BME280;9959;49.798;9.928;2022-12-07T09:25:51;99644.75;;;3.79;89.10
19624;BME280;9959;49.798;9.928;2022-12-07T09:28:19;99637.53;;;3.87;88.38
19624;BME280;9959;49.798;9.928;2022-12-07T09:30:48;99632.91;;;3.73;90.16
19624;BME280;9959;49.798;9.928;2022-12-07T09:33:36;99629.53;;;4.03;87.43
19624;BME280;9959;49.798;9.928;2022-12-07T09:36:04;99631.03;;;4.06;88.05
19624;BME280;9959;49.798;9.928;2022-12-07T09:38:34;99637.31;;;4.13;87.16
19624;BME280;9959;49.798;9.928;2022-12-07T09:41:04;99632.97;;;4.20;86.66
19624;BME280;9959;49.798;9.928;2022-12-07T09:43:35;99628.88;;;4.01;86.50
19624;BME280;9959;49.798;9.928;2022-12-07T09:46:04;99639.78;;;4.31;85.65
19624;BME280;9959;49.798;9.928;2022-12-07T09:48:34;99626.97;;;4.26;85.49
19624;BME280;9959;49.798;9.928;2022-12-07T09:51:13;99630.91;;;4.38;84.74
19624;BME280;9959;49.798;9.928;2022-12-07T09:53:50;99628.91;;;4.40;85.77
19624;BME280;9959;49.798;9.928;2022-12-07T09:56:19;99629.59;;;4.73;83.31
19624;BME280;9959;49.798;9.928;2022-12-07T09:58:48;99634.66;;;4.60;83.10
19624;BME280;9959;49.798;9.928;2022-12-07T10:01:18;99621.81;;;4.64;84.27
19624;BME280;9959;49.798;9.928;2022-12-07T10:03:50;99631.88;;;4.54;84.12
19624;BME280;9959;49.798;9.928;2022-12-07T10:06:20;99628.34;;;4.61;83.56
19624;BME280;9959;49.798;9.928;2022-12-07T10:08:49;99630.84;;;4.55;83.95
19624;BME280;9959;49.798;9.928;2022-12-07T10:11:17;99626.78;;;4.28;85.27
19624;BME280;9959;49.798;9.928;2022-12-07T10:13:47;99627.59;;;4.36;85.23
19624;BME280;9959;49.798;9.928;2022-12-07T10:16:35;99625.56;;;4.38;86.20
19624;BME280;9959;49.798;9.928;2022-12-07T10:19:20;99626.28;;;4.32;86.62
19624;BME280;9959;49.798;9.928;2022-12-07T10:22:01;99625.94;;;4.35;86.29
19624;BME280;9959;49.798;9.928;2022-12-07T10:24:31;99614.34;;;4.51;86.01
19624;BME280;9959;49.798;9.928;2022-12-07T10:26:59;99622.72;;;4.48;85.46
19624;BME280;9959;49.798;9.928;2022-12-07T10:29:30;99631.88;;;4.46;84.70
19624;BME280;9959;49.798;9.928;2022-12-07T10:32:00;99618.84;;;4.59;85.12
19624;BME280;9959;49.798;9.928;2022-12-07T10:34:30;99618.91;;;4.73;84.18
19624;BME280;9959;49.798;9.928;2022-12-07T10:37:15;99610.53;;;4.54;83.92
19624;BME280;9959;49.798;9.928;2022-12-07T10:39:47;99606.88;;;4.47;83.96
19624;BME280;9959;49.798;9.928;2022-12-07T10:42:17;99611.56;;;4.45;84.03
19624;BME280;9959;49.798;9.928;2022-12-07T10:44:46;99608.53;;;4.48;83.40
19624;BME280;9959;49.798;9.928;2022-12-07T10:47:25;99604.88;;;4.49;83.55
19624;BME280;9959;49.798;9.928;2022-12-07T10:50:36;99606.53;;;4.50;82.57
19624;BME280;9959;49.798;9.928;2022-12-07T10:53:21;99596.44;;;4.37;83.14
19624;BME280;9959;49.798;9.928;2022-12-07T10:56:07;99603.22;;;4.39;83.78
19624;BME280;9959;49.798;9.928;2022-12-07T10:58:52;99602.53;;;4.46;83.13
19624;BME280;9959;49.798;9.928;2022-12-07T11:01:30;99599.53;;;4.49;83.50
19624;BME280;9959;49.798;9.928;2022-12-07T11:04:16;99594.22;;;4.40;83.13
19624;BME280;9959;49.798;9.928;2022-12-07T11:06:51;99592.53;;;4.48;82.98
19624;BME280;9959;49.798;9.928;2022-12-07T11:09:44;99586.66;;;4.60;81.79
19624;BME280;9959;49.798;9.928;2022-12-07T11:12:43;99581.31;;;4.60;82.93
19624;BME280;9959;49.798;9.928;2022-12-07T11:15:20;99580.03;;;4.79;81.46
19624;BME280;9959;49.798;9.928;2022-12-07T11:17:57;99579.69;;;4.82;80.85
19624;BME280;9959;49.798;9.928;2022-12-07T11:20:35;99580.50;;;5.05;80.03
19624;BME280;9959;49.798;9.928;2022-12-07T11:23:16;99571.97;;;4.87;80.81
19624;BME280;9959;49.798;9.928;2022-12-07T11:25:52;99580.16;;;4.86;80.77
19624;BME280;9959;49.798;9.928;2022-12-07T11:28:33;99571.19;;;5.01;80.30
19624;BME280;9959;49.798;9.928;2022-12-07T11:31:12;99572.31;;;5.07;79.93
19624;BME280;9959;49.798;9.928;2022-12-07T11:33:46;99569.31;;;5.10;80.04
19624;BME280;9959;49.798;9.928;2022-12-07T11:36:33;99570.72;;;4.98;79.98
19624;BME280;9959;49.798;9.928;2022-12-07T11:39:14;99566.59;;;5.33;78.92
19624;BME280;9959;49.798;9.928;2022-12-07T11:41:46;99563.81;;;5.64;77.32
19624;BME280;9959;49.798;9.928;2022-12-07T11:44:25;99567.16;;;5.66;76.04
19624;BME280;9959;49.798;9.928;2022-12-07T11:46:59;99561.28;;;5.33;77.08
19624;BME280;9959;49.798;9.928;2022-12-07T11:49:40;99559.41;;;5.19;77.15
19624;BME280;9959;49.798;9.928;2022-12-07T11:52:16;99566.50;;;5.03;77.46
19624;BME280;9959;49.798;9.928;2022-12-07T11:54:46;99553.88;;;4.97;77.52
19624;BME280;9959;49.798;9.928;2022-12-07T11:57:23;99548.00;;;5.02;78.24
19624;BME280;9959;49.798;9.928;2022-12-07T11:59:58;99542.53;;;5.18;77.67
19624;BME280;9959;49.798;9.928;2022-12-07T12:02:32;99553.22;;;5.18;77.54
19624;BME280;9959;49.798;9.928;2022-12-07T12:05:13;99535.63;;;5.24;78.04
19624;BME280;9959;49.798;9.928;2022-12-07T12:07:44;99544.28;;;5.11;78.60
19624;BME280;9959;49.798;9.928;2022-12-07T12:10:40;99535.44;;;5.10;78.08
19624;BME280;9959;49.798;9.928;2022-12-07T12:13:22;99526.75;;;5.08;78.04
19624;BME280;9959;49.798;9.928;2022-12-07T12:16:47;99525.56;;;5.11;77.31
19624;BME280;9959;49.798;9.928;2022-12-07T12:19:27;99532.09;;;5.08;78.41
19624;BME280;9959;49.798;9.928;2022-12-07T12:22:05;99527.06;;;5.14;77.65
19624;BME280;9959;49.798;9.928;2022-12-07T12:24:37;99525.81;;;5.39;76.50
19624;BME280;9959;49.798;9.928;2022-12-07T12:27:09;99528.31;;;5.55;76.14
19624;BME280;9959;49.798;9.928;2022-12-07T12:29:39;99517.72;;;5.47;75.08
19624;BME280;9959;49.798;9.928;2022-12-07T12:32:20;99515.69;;;5.34;75.89
19624;BME280;9959;49.798;9.928;2022-12-07T12:35:02;99521.50;;;5.38;75.67
19624;BME280;9959;49.798;9.928;2022-12-07T12:37:44;99516.69;;;5.48;75.57
19624;BME280;9959;49.798;9.928;2022-12-07T12:40:41;99511.28;;;5.41;75.13
19624;BME280;9959;49.798;9.928;2022-12-07T12:43:42;99516.03;;;5.31;75.68
19624;BME280;9959;49.798;9.928;2022-12-07T12:46:37;99507.66;;;5.20;75.26
19624;BME280;9959;49.798;9.928;2022-12-07T12:49:43;99508.00;;;5.17;75.48
19624;BME280;9959;49.798;9.928;2022-12-07T12:58:33;99515.03;;;4.72;79.95
19624;BME280;9959;49.798;9.928;2022-12-07T13:04:28;99505.97;;;4.27;85.72
19624;BME280;9959;49.798;9.928;2022-12-07T13:06:59;99501.28;;;3.98;88.44
19624;BME280;9959;49.798;9.928;2022-12-07T13:09:30;99500.50;;;3.82;89.50
19624;BME280;9959;49.798;9.928;2022-12-07T13:12:02;99495.69;;;3.77;89.98
19624;BME280;9959;49.798;9.928;2022-12-07T13:14:55;99492.19;;;3.77;89.86
19624;BME280;9959;49.798;9.928;2022-12-07T13:20:48;99473.56;;;3.77;90.66
19624;BME280;9959;49.798;9.928;2022-12-07T13:23:21;99487.81;;;3.84;90.59
19624;BME280;9959;49.798;9.928;2022-12-07T13:26:13;99484.16;;;3.85;90.08
19624;BME280;9959;49.798;9.928;2022-12-07T13:28:46;99480.28;;;3.95;88.62
19624;BME280;9959;49.798;9.928;2022-12-07T13:31:31;99486.38;;;4.12;88.42
19624;BME280;9959;49.798;9.928;2022-12-07T13:34:00;99489.28;;;4.33;87.21
19624;BME280;9959;49.798;9.928;2022-12-07T13:36:30;99489.84;;;4.43;86.57
19624;BME280;9959;49.798;9.928;2022-12-07T13:39:18;99478.97;;;4.53;85.66
19624;BME280;9959;49.798;9.928;2022-12-07T13:41:50;99481.94;;;4.58;84.88
19624;BME280;9959;49.798;9.928;2022-12-07T13:44:19;99482.88;;;4.88;84.89
19624;BME280;9959;49.798;9.928;2022-12-07T13:46:52;99485.19;;;5.29;81.61
19624;BME280;9959;49.798;9.928;2022-12-07T13:49:24;99490.88;;;5.26;80.48
19624;BME280;9959;49.798;9.928;2022-12-07T13:51:52;99474.81;;;5.93;77.71
19624;BME280;9959;49.798;9.928;2022-12-07T13:54:22;99481.44;;;6.48;74.73
19624;BME280;9959;49.798;9.928;2022-12-07T13:56:51;99475.66;;;6.29;74.10
19624;BME280;9959;49.798;9.928;2022-12-07T13:59:21;99478.66;;;6.56;73.51
19624;BME280;9959;49.798;9.928;2022-12-07T14:01:51;99478.69;;;6.41;72.99
19624;BME280;9959;49.798;9.928;2022-12-07T14:04:30;99482.56;;;5.73;75.50
19624;BME280;9959;49.798;9.928;2022-12-07T14:06:59;99482.63;;;5.50;76.17